createdAt,value
2022-09-24T00:01:24.418Z,1.40
2022-09-24T00:04:31.846Z,2.30
2022-09-24T00:07:40.030Z,2.10
2022-09-24T00:10:47.352Z,2.00
2022-09-24T00:13:55.517Z,2.00
2022-09-24T00:17:03.629Z,1.70
2022-09-24T00:20:10.959Z,2.40
2022-09-24T00:23:19.241Z,2.30
2022-09-24T00:26:26.791Z,2.40
2022-09-24T00:29:34.559Z,2.10
2022-09-24T00:32:42.583Z,2.30
2022-09-24T00:35:50.423Z,2.30
2022-09-24T00:38:58.231Z,2.00
2022-09-24T00:42:05.886Z,2.20
2022-09-24T00:45:14.116Z,2.00
2022-09-24T00:48:21.495Z,2.10
2022-09-24T00:51:29.158Z,2.10
2022-09-24T00:54:37.298Z,2.00
2022-09-24T00:57:44.662Z,2.30
2022-09-24T01:00:49.501Z,2.30
2022-09-24T01:03:57.340Z,2.20
2022-09-24T01:07:04.956Z,1.90
2022-09-24T01:10:12.773Z,2.00
2022-09-24T01:13:20.131Z,2.00
2022-09-24T01:16:28.400Z,2.20
2022-09-24T01:19:36.663Z,2.00
2022-09-24T01:22:43.955Z,2.30
2022-09-24T01:25:52.076Z,2.20
2022-09-24T01:28:59.966Z,2.50
2022-09-24T01:32:07.691Z,2.70
2022-09-24T01:35:15.417Z,2.40
2022-09-24T01:38:23.111Z,2.60
2022-09-24T01:41:30.759Z,2.60
2022-09-24T01:44:38.444Z,2.80
2022-09-24T01:47:46.041Z,2.60
2022-09-24T01:50:53.749Z,2.50
2022-09-24T01:54:01.236Z,2.70
2022-09-24T01:57:08.775Z,2.80
2022-09-24T02:00:16.533Z,2.60
2022-09-24T02:03:24.031Z,2.40
2022-09-24T02:06:31.726Z,2.70
2022-09-24T02:09:39.405Z,2.80
2022-09-24T02:12:47.328Z,3.00
2022-09-24T02:15:55.059Z,2.50
2022-09-24T02:19:02.846Z,2.50
2022-09-24T02:22:10.751Z,2.80
2022-09-24T02:25:18.463Z,2.60
2022-09-24T02:28:26.225Z,2.60
2022-09-24T02:31:34.486Z,2.50
2022-09-24T02:34:41.802Z,2.50
2022-09-24T02:37:49.954Z,2.80
2022-09-24T02:40:58.270Z,2.50
2022-09-24T02:44:05.634Z,2.20
2022-09-24T02:47:13.777Z,2.50
2022-09-24T02:50:21.685Z,2.20
2022-09-24T02:53:28.956Z,2.40
2022-09-24T02:56:37.048Z,2.30
2022-09-24T02:59:44.800Z,2.30
2022-09-24T03:02:52.634Z,2.70
2022-09-24T03:06:00.384Z,2.50
2022-09-24T03:09:07.909Z,2.10
2022-09-24T03:12:15.665Z,2.50
2022-09-24T03:15:23.394Z,2.70
2022-09-24T03:18:31.024Z,3.00
2022-09-24T03:21:38.734Z,2.30
2022-09-24T03:24:46.074Z,2.70
2022-09-24T03:27:54.137Z,2.60
2022-09-24T03:31:02.116Z,2.80
2022-09-24T03:34:09.621Z,2.30
2022-09-24T03:37:17.818Z,2.60
2022-09-24T03:40:25.581Z,2.80
2022-09-24T03:43:33.280Z,2.70
2022-09-24T03:46:41.545Z,2.60
2022-09-24T03:49:49.308Z,2.70
2022-09-24T03:52:56.822Z,2.80
2022-09-24T03:56:04.741Z,2.80
2022-09-24T03:59:11.993Z,2.50
2022-09-24T04:02:20.104Z,2.30
2022-09-24T04:05:27.864Z,2.60
2022-09-24T04:08:35.424Z,2.60
2022-09-24T04:11:43.414Z,2.60
2022-09-24T04:14:51.190Z,2.60
2022-09-24T04:17:58.757Z,2.60
2022-09-24T04:21:06.408Z,2.70
2022-09-24T04:24:14.025Z,2.80
2022-09-24T04:27:21.739Z,3.00
2022-09-24T04:30:29.559Z,2.60
2022-09-24T04:33:37.224Z,2.40
2022-09-24T04:36:44.763Z,2.50
2022-09-24T04:39:52.015Z,2.40
2022-09-24T04:43:00.025Z,3.00
2022-09-24T04:46:07.688Z,2.60
2022-09-24T04:49:15.176Z,2.60
2022-09-24T04:52:23.136Z,2.40
2022-09-24T04:55:30.726Z,2.70
2022-09-24T04:58:37.997Z,2.70
2022-09-24T05:01:45.985Z,2.50
2022-09-24T05:04:53.318Z,2.90
2022-09-24T05:08:01.459Z,2.80
2022-09-24T05:11:09.747Z,3.10
2022-09-24T05:14:17.010Z,3.30
2022-09-24T05:17:24.911Z,2.70
2022-09-24T05:20:32.930Z,3.00
2022-09-24T05:23:40.064Z,3.00
2022-09-24T05:26:48.060Z,3.40
2022-09-24T05:29:55.964Z,3.10
2022-09-24T05:33:03.203Z,2.90
2022-09-24T05:36:11.466Z,2.90
2022-09-24T05:39:19.466Z,5.20
2022-09-24T05:42:27.758Z,4.60
2022-09-24T05:45:35.769Z,3.30
2022-09-24T05:48:43.298Z,3.30
2022-09-24T05:51:51.022Z,2.80
2022-09-24T05:54:58.998Z,3.10
2022-09-24T05:58:06.790Z,2.90
2022-09-24T06:01:14.417Z,3.10
2022-09-24T06:04:21.919Z,3.40
2022-09-24T06:07:30.120Z,4.20
2022-09-24T06:10:37.633Z,3.50
2022-09-24T06:13:45.517Z,3.30
2022-09-24T06:16:53.245Z,3.30
2022-09-24T06:20:01.697Z,3.60
2022-09-24T06:23:09.686Z,3.20
2022-09-24T06:26:17.735Z,3.10
2022-09-24T06:29:25.998Z,3.20
2022-09-24T06:32:34.668Z,2.70
2022-09-24T06:35:43.283Z,3.00
2022-09-24T06:38:51.359Z,2.70
2022-09-24T06:42:00.311Z,3.00
2022-09-24T06:45:09.291Z,2.80
2022-09-24T06:48:17.500Z,2.80
2022-09-24T06:51:27.214Z,2.80
2022-09-24T06:54:36.284Z,2.70
2022-09-24T06:57:44.725Z,2.60
2022-09-24T07:00:53.179Z,2.70
2022-09-24T07:04:02.177Z,2.60
2022-09-24T07:07:10.677Z,2.50
2022-09-24T07:10:18.798Z,3.30
2022-09-24T07:13:27.360Z,2.80
2022-09-24T07:16:36.281Z,3.40
2022-09-24T07:19:44.729Z,3.30
2022-09-24T07:22:53.082Z,3.20
2022-09-24T07:26:01.865Z,3.10
2022-09-24T07:29:10.726Z,3.10
2022-09-24T07:32:19.204Z,3.00
2022-09-24T07:35:28.174Z,2.80
2022-09-24T07:38:36.461Z,2.90
2022-09-24T07:41:41.970Z,3.00
2022-09-24T07:44:39.985Z,2.40
2022-09-24T07:47:48.548Z,2.80
2022-09-24T07:50:57.499Z,2.50
2022-09-24T07:54:07.430Z,3.00
2022-09-24T07:57:17.031Z,3.40
2022-09-24T08:00:25.741Z,2.90
2022-09-24T08:03:35.303Z,2.90
2022-09-24T08:06:47.566Z,2.90
2022-09-24T08:09:47.345Z,3.00
2022-09-24T08:12:55.825Z,3.00
2022-09-24T08:16:04.602Z,3.50
2022-09-24T08:19:13.616Z,2.80
2022-09-24T08:22:21.716Z,3.40
2022-09-24T08:25:30.544Z,2.60
2022-09-24T08:28:39.400Z,2.60
2022-09-24T08:31:47.663Z,2.90
2022-09-24T08:34:56.812Z,2.10
2022-09-24T08:38:05.533Z,3.00
2022-09-24T08:41:13.623Z,2.40
2022-09-24T08:44:22.965Z,2.30
2022-09-24T08:47:31.615Z,2.30
2022-09-24T08:50:40.896Z,2.70
2022-09-24T08:53:50.298Z,2.20
2022-09-24T08:56:59.115Z,2.80
2022-09-24T09:00:07.929Z,2.70
2022-09-24T09:03:17.290Z,2.30
2022-09-24T09:06:25.402Z,2.60
2022-09-24T09:09:35.273Z,2.10
2022-09-24T09:12:45.165Z,2.40
2022-09-24T09:15:54.362Z,2.30
2022-09-24T09:19:03.923Z,1.80
2022-09-24T09:22:13.385Z,2.30
2022-09-24T09:25:22.226Z,2.30
2022-09-24T09:28:31.369Z,2.30
2022-09-24T09:31:40.018Z,2.30
2022-09-24T09:34:49.212Z,2.30
2022-09-24T09:37:58.101Z,2.30
2022-09-24T09:41:07.314Z,2.80
2022-09-24T09:44:15.544Z,3.70
2022-09-24T09:47:24.485Z,12.60
2022-09-24T09:50:33.116Z,3.40
2022-09-24T09:53:41.686Z,2.50
2022-09-24T09:56:50.280Z,3.00
2022-09-24T09:59:59.279Z,3.90
2022-09-24T10:03:09.809Z,3.10
2022-09-24T10:06:18.272Z,2.50
2022-09-24T10:09:27.295Z,2.50
2022-09-24T10:12:36.225Z,3.40
2022-09-24T10:15:45.704Z,2.20
2022-09-24T10:18:54.736Z,2.30
2022-09-24T10:22:02.915Z,3.50
2022-09-24T10:25:12.294Z,3.40
2022-09-24T10:28:21.220Z,3.20
2022-09-24T10:31:29.433Z,3.50
2022-09-24T10:34:39.716Z,3.30
2022-09-24T10:37:48.386Z,3.30
2022-09-24T10:40:57.528Z,4.70
2022-09-24T10:44:06.626Z,4.10
2022-09-24T10:47:15.105Z,3.40
2022-09-24T10:50:23.655Z,3.60
2022-09-24T10:53:32.996Z,3.90
2022-09-24T10:56:46.232Z,4.00
2022-09-24T10:59:44.392Z,7.70
2022-09-24T11:02:53.530Z,3.80
2022-09-24T11:06:01.663Z,3.50
2022-09-24T11:09:10.934Z,3.70
2022-09-24T11:12:19.715Z,4.00
2022-09-24T11:15:28.075Z,4.50
2022-09-24T11:18:36.546Z,4.20
2022-09-24T11:21:45.215Z,3.70
2022-09-24T11:24:53.667Z,3.80
2022-09-24T11:27:55.777Z,3.90
2022-09-24T11:31:04.025Z,3.50
2022-09-24T11:34:14.541Z,3.90
2022-09-24T11:37:23.544Z,3.60
2022-09-24T11:40:31.824Z,4.40
2022-09-24T11:43:40.604Z,16.10
2022-09-24T11:46:49.765Z,4.40
2022-09-24T11:49:58.425Z,3.90
2022-09-24T11:53:07.208Z,7.60
2022-09-24T11:56:15.791Z,5.80
2022-09-24T11:59:24.441Z,4.20
2022-09-24T12:02:33.312Z,4.30
2022-09-24T12:05:42.034Z,4.20
2022-09-24T12:08:50.663Z,4.00
2022-09-24T12:11:58.784Z,4.10
2022-09-24T12:15:08.117Z,4.60
2022-09-24T12:18:17.518Z,4.30
2022-09-24T12:21:25.690Z,4.20
2022-09-24T12:24:34.851Z,4.40
2022-09-24T12:27:43.213Z,4.20
2022-09-24T12:30:52.418Z,3.90
2022-09-24T12:34:01.978Z,4.00
2022-09-24T12:37:10.665Z,4.00
2022-09-24T12:40:19.569Z,3.60
2022-09-24T12:43:28.846Z,4.10
2022-09-24T12:46:37.569Z,4.70
2022-09-24T12:49:46.727Z,4.80
2022-09-24T12:52:57.047Z,4.00
2022-09-24T12:56:05.339Z,3.90
2022-09-24T12:59:13.951Z,4.00
2022-09-24T13:02:22.613Z,3.50
2022-09-24T13:05:31.204Z,4.40
2022-09-24T13:08:40.185Z,3.60
2022-09-24T13:11:49.277Z,3.30
2022-09-24T13:14:57.897Z,4.00
2022-09-24T13:18:06.639Z,4.00
2022-09-24T13:21:14.769Z,4.90
2022-09-24T13:24:23.440Z,5.00
2022-09-24T13:27:32.163Z,4.80
2022-09-24T13:30:41.550Z,5.20
2022-09-24T13:33:50.193Z,4.80
2022-09-24T13:36:59.133Z,5.10
2022-09-24T13:40:08.015Z,5.50
2022-09-24T13:43:16.556Z,6.00
2022-09-24T13:46:25.112Z,5.90
2022-09-24T13:49:33.889Z,5.50
2022-09-24T13:52:42.279Z,5.60
2022-09-24T13:55:51.390Z,5.80
2022-09-24T13:59:00.280Z,5.50
2022-09-24T14:02:09.525Z,5.70
2022-09-24T14:05:18.650Z,6.30
2022-09-24T14:08:28.203Z,7.00
2022-09-24T14:11:36.537Z,6.80
2022-09-24T14:14:45.188Z,6.30
2022-09-24T14:17:54.178Z,7.20
2022-09-24T14:21:03.419Z,6.80
2022-09-24T14:24:12.579Z,6.80
2022-09-24T14:27:21.053Z,6.90
2022-09-24T14:30:30.872Z,6.50
2022-09-24T14:33:40.445Z,5.80
2022-09-24T14:36:48.763Z,5.40
2022-09-24T14:39:58.773Z,4.90
2022-09-24T14:43:07.906Z,4.80
2022-09-24T14:46:17.967Z,5.50
2022-09-24T14:49:27.078Z,5.00
2022-09-24T14:52:35.887Z,4.80
2022-09-24T14:55:45.120Z,4.90
2022-09-24T14:58:45.701Z,4.60
2022-09-24T15:01:55.294Z,4.80
2022-09-24T15:05:06.667Z,5.00
2022-09-24T15:08:15.474Z,4.50
2022-09-24T15:11:23.904Z,4.20
2022-09-24T15:14:33.666Z,4.00
2022-09-24T15:17:42.457Z,4.10
2022-09-24T15:20:50.986Z,3.80
2022-09-24T15:23:59.991Z,4.10
2022-09-24T15:27:01.369Z,3.90
2022-09-24T15:30:10.616Z,4.20
2022-09-24T15:33:18.632Z,4.00
2022-09-24T15:36:27.162Z,4.20
2022-09-24T15:39:36.581Z,5.40
2022-09-24T15:42:37.195Z,4.20
2022-09-24T15:45:46.545Z,4.60
2022-09-24T15:48:55.515Z,4.80
2022-09-24T15:52:04.409Z,4.70
2022-09-24T15:55:14.518Z,4.40
2022-09-24T15:58:22.729Z,5.00
2022-09-24T16:01:31.710Z,4.80
2022-09-24T16:04:40.481Z,4.90
2022-09-24T16:07:43.392Z,4.60
2022-09-24T16:10:52.739Z,5.20
2022-09-24T16:14:02.451Z,5.40
2022-09-24T16:17:12.334Z,5.30
2022-09-24T16:20:21.095Z,5.70
2022-09-24T16:23:31.465Z,6.30
2022-09-24T16:26:40.529Z,8.00
2022-09-24T16:29:50.064Z,7.20
2022-09-24T16:33:00.309Z,5.80
2022-09-24T16:36:08.387Z,5.80
2022-09-24T16:39:17.860Z,6.00
2022-09-24T16:42:27.921Z,6.30
2022-09-24T16:45:36.183Z,6.10
2022-09-24T16:48:46.813Z,6.10
2022-09-24T16:51:56.582Z,6.60
2022-09-24T16:55:04.669Z,5.70
2022-09-24T16:58:15.405Z,6.50
2022-09-24T17:01:24.336Z,6.60
2022-09-24T17:04:34.280Z,6.70
2022-09-24T17:07:43.468Z,6.80
2022-09-24T17:10:55.915Z,7.30
2022-09-24T17:13:56.242Z,7.20
2022-09-24T17:17:04.302Z,7.40
2022-09-24T17:20:12.521Z,9.40
2022-09-24T17:23:20.742Z,8.80
2022-09-24T17:26:28.643Z,9.40
2022-09-24T17:29:37.026Z,10.60
2022-09-24T17:32:45.179Z,10.80
2022-09-24T17:35:53.335Z,10.80
2022-09-24T17:39:01.990Z,10.80
2022-09-24T17:42:10.136Z,10.80
2022-09-24T17:45:18.339Z,11.70
2022-09-24T17:48:26.928Z,10.90
2022-09-24T17:51:35.137Z,11.90
2022-09-24T17:54:43.290Z,12.10
2022-09-24T17:57:51.584Z,10.80
2022-09-24T18:00:59.380Z,10.30
2022-09-24T18:04:08.041Z,10.10
2022-09-24T18:07:16.404Z,11.80
2022-09-24T18:10:24.634Z,11.10
2022-09-24T18:13:32.760Z,11.10
2022-09-24T18:16:40.875Z,12.80
2022-09-24T18:19:49.748Z,15.80
2022-09-24T18:22:58.407Z,28.70
2022-09-24T18:26:06.189Z,20.30
2022-09-24T18:29:14.560Z,20.70
2022-09-24T18:32:23.200Z,15.50
2022-09-24T18:35:38.025Z,13.80
2022-09-24T18:38:46.582Z,13.10
2022-09-24T18:41:55.282Z,12.00
2022-09-24T18:45:02.932Z,14.90
2022-09-24T18:48:11.752Z,13.40
2022-09-24T18:51:19.726Z,14.30
2022-09-24T18:54:27.396Z,11.70
2022-09-24T18:57:35.837Z,13.30
2022-09-24T19:00:43.557Z,14.50
2022-09-24T19:03:51.588Z,16.10
2022-09-24T19:07:00.091Z,14.10
2022-09-24T19:10:07.949Z,13.10
2022-09-24T19:13:15.822Z,14.50
2022-09-24T19:16:24.076Z,14.80
2022-09-24T19:19:31.702Z,16.40
2022-09-24T19:22:40.061Z,17.50
2022-09-24T19:25:48.106Z,17.20
2022-09-24T19:28:56.046Z,16.70
2022-09-24T19:32:04.100Z,15.10
2022-09-24T19:35:11.937Z,14.70
2022-09-24T19:38:19.988Z,15.70
2022-09-24T19:41:28.560Z,16.40
2022-09-24T19:44:36.553Z,17.00
2022-09-24T19:47:44.537Z,16.60
2022-09-24T19:50:53.341Z,15.60
2022-09-24T19:54:01.410Z,15.20
2022-09-24T19:57:09.571Z,15.10
2022-09-24T20:00:17.343Z,14.90
2022-09-24T20:03:26.030Z,15.60
2022-09-24T20:06:34.528Z,15.20
2022-09-24T20:09:42.154Z,15.10
2022-09-24T20:12:50.656Z,13.80
2022-09-24T20:15:59.623Z,14.20
2022-09-24T20:19:07.537Z,13.70
2022-09-24T20:22:17.487Z,12.80
2022-09-24T20:25:26.010Z,12.60
2022-09-24T20:28:33.640Z,13.80
2022-09-24T20:31:41.861Z,13.90
2022-09-24T20:34:49.398Z,13.50
2022-09-24T20:37:57.784Z,13.50
2022-09-24T20:41:06.314Z,13.90
2022-09-24T20:44:14.266Z,14.30
2022-09-24T20:47:22.254Z,12.20
2022-09-24T20:50:30.576Z,13.40
2022-09-24T20:53:38.186Z,13.20
2022-09-24T20:56:46.617Z,13.50
2022-09-24T20:59:54.438Z,13.40
2022-09-24T21:03:15.248Z,14.10
2022-09-24T21:06:07.973Z,13.90
2022-09-24T21:09:15.799Z,14.10
2022-09-24T21:12:23.741Z,15.10
2022-09-24T21:15:31.874Z,14.70
2022-09-24T21:18:40.591Z,16.30
2022-09-24T21:21:48.807Z,15.10
2022-09-24T21:24:57.332Z,15.80
2022-09-24T21:28:05.445Z,16.20
2022-09-24T21:31:13.452Z,16.60
2022-09-24T21:34:21.446Z,16.20
2022-09-24T21:37:29.785Z,15.40
2022-09-24T21:40:37.847Z,15.70
2022-09-24T21:43:45.988Z,15.70
2022-09-24T21:46:54.359Z,15.50
2022-09-24T21:50:02.071Z,15.90
2022-09-24T21:53:09.991Z,15.50
2022-09-24T21:56:18.493Z,15.30
2022-09-24T21:59:26.512Z,14.60
2022-09-24T22:02:34.661Z,14.90
2022-09-24T22:05:42.943Z,15.30
2022-09-24T22:08:50.593Z,15.50
2022-09-24T22:11:58.896Z,15.20
2022-09-24T22:15:07.427Z,15.60
2022-09-24T22:18:15.147Z,16.20
2022-09-24T22:21:23.278Z,16.90
2022-09-24T22:24:31.297Z,16.60
2022-09-24T22:27:39.401Z,17.60
2022-09-24T22:30:47.569Z,17.60
2022-09-24T22:33:55.230Z,18.10
2022-09-24T22:37:03.313Z,19.20
2022-09-24T22:40:11.990Z,19.40
2022-09-24T22:43:19.478Z,19.40
2022-09-24T22:46:28.087Z,19.30
2022-09-24T22:49:36.598Z,19.30
2022-09-24T22:52:44.186Z,19.60
2022-09-24T22:55:52.979Z,19.90
2022-09-24T22:59:00.806Z,19.30
2022-09-24T23:02:13.043Z,20.50
2022-09-24T23:05:11.296Z,20.10
2022-09-24T23:08:19.361Z,20.20
2022-09-24T23:11:27.583Z,20.00
2022-09-24T23:14:36.003Z,20.40
2022-09-24T23:17:44.019Z,19.70
2022-09-24T23:20:52.073Z,20.50
2022-09-24T23:24:00.175Z,21.20
2022-09-24T23:27:08.454Z,20.90
2022-09-24T23:30:16.461Z,21.50
2022-09-24T23:33:24.356Z,21.20
2022-09-24T23:36:32.576Z,21.40
2022-09-24T23:39:40.672Z,21.90
2022-09-24T23:42:48.646Z,23.00
2022-09-24T23:45:57.114Z,23.70
2022-09-24T23:49:04.723Z,23.80
2022-09-24T23:52:13.079Z,24.80
2022-09-24T23:55:21.611Z,23.20
2022-09-24T23:58:29.267Z,23.50
